Time;durP1;ratioP1;P1;durP2;ratioP2;P2;SDS_P1;SDS_P2;PMS_P1;PMS_P2;Temp;Humidity;BMP_temperature;BMP_pressure;BME280_temperature;BME280_humidity;BME280_pressure;Samples;Min_cycle;Max_cycle;Signal;HPM_P1;HPM_P2
2022/04/11 00:02:00;;;;;;;2.58;2.00;;;;;;;;;;5080952;28;20928;-19
2022/04/11 00:04:28;;;;;;;2.70;1.90;;;;;;;;;;5075826;28;20316;-19
2022/04/11 00:06:55;;;;;;;2.70;1.90;;;;;;;;;;5083428;28;20234;-19
2022/04/11 00:09:23;;;;;;;2.83;2.05;;;;;;;;;;5080426;28;20229;-18
2022/04/11 00:11:50;;;;;;;4.88;2.58;;;;;;;;;;5081261;28;20239;-18
2022/04/11 00:14:17;;;;;;;2.95;2.28;;;;;;;;;;5079776;28;20221;-18
2022/04/11 00:16:46;;;;;;;3.97;2.22;;;;;;;;;;5078659;28;20221;-19
2022/04/11 00:19:13;;;;;;;3.25;2.13;;;;;;;;;;5082836;28;20324;-18
2022/04/11 00:21:41;;;;;;;3.63;2.15;;;;;;;;;;5075027;28;20751;-18
2022/04/11 00:24:08;;;;;;;4.85;2.75;;;;;;;;;;5081635;28;20229;-18
2022/04/11 00:26:36;;;;;;;3.83;2.20;;;;;;;;;;5078535;28;20233;-19
2022/04/11 00:29:03;;;;;;;3.08;2.20;;;;;;;;;;5082051;28;20213;-19
2022/04/11 00:31:30;;;;;;;3.55;2.33;;;;;;;;;;5080978;28;20569;-18
2022/04/11 00:33:59;;;;;;;4.53;2.58;;;;;;;;;;5080126;28;20240;-18
2022/04/11 00:36:26;;;;;;;4.20;2.58;;;;;;;;;;5080553;28;20229;-18
2022/04/11 00:38:54;;;;;;;3.65;2.22;;;;;;;;;;5081646;28;20245;-19
2022/04/11 00:41:21;;;;;;;6.20;2.72;;;;;;;;;;5085670;28;20225;-18
2022/04/11 00:43:48;;;;;;;8.07;2.92;;;;;;;;;;5083382;28;20222;-18
2022/04/11 00:46:16;;;;;;;6.07;2.40;;;;;;;;;;5082336;28;20233;-18
2022/04/11 00:48:43;;;;;;;5.25;2.58;;;;;;;;;;5082392;28;20284;-18
2022/04/11 00:51:12;;;;;;;3.08;2.28;;;;;;;;;;5081264;28;20236;-18
2022/04/11 00:53:40;;;;;;;3.10;2.30;;;;;;;;;;5082627;28;20222;-18
2022/04/11 00:56:08;;;;;;;5.20;2.50;;;;;;;;;;5085782;28;20242;-19
2022/04/11 00:58:36;;;;;;;4.22;2.65;;;;;;;;;;5084959;28;20290;-18
2022/04/11 01:01:03;;;;;;;4.53;2.47;;;;;;;;;;5086149;28;20770;-18
2022/04/11 01:03:31;;;;;;;3.72;2.30;;;;;;;;;;5084317;28;20237;-18
2022/04/11 01:05:58;;;;;;;3.20;2.00;;;;;;;;;;5083808;28;20227;-18
2022/04/11 01:08:27;;;;;;;6.78;2.53;;;;;;;;;;5083688;28;20230;-18
2022/04/11 01:10:54;;;;;;;3.42;1.73;;;;;;;;;;5078662;28;20244;-18
2022/04/11 01:13:22;;;;;;;3.92;2.42;;;;;;;;;;5083306;28;20986;-19
2022/04/11 01:15:53;;;;;;;4.40;2.20;;;;;;;;;;5077883;28;20232;-19
2022/04/11 01:18:21;;;;;;;2.72;1.90;;;;;;;;;;5076812;28;20279;-18
2022/04/11 01:20:48;;;;;;;3.30;1.98;;;;;;;;;;5080261;28;20233;-19
2022/04/11 01:23:16;;;;;;;2.95;2.10;;;;;;;;;;5081413;28;20304;-18
2022/04/11 01:25:44;;;;;;;2.35;1.83;;;;;;;;;;5082218;28;20233;-18
2022/04/11 01:28:11;;;;;;;3.40;2.08;;;;;;;;;;5081470;28;20217;-18
2022/04/11 01:30:39;;;;;;;3.30;1.95;;;;;;;;;;5083312;28;20237;-18
2022/04/11 01:33:14;;;;;;;4.70;1.88;;;;;;;;;;5078384;28;20730;-18
2022/04/11 01:35:41;;;;;;;4.72;1.90;;;;;;;;;;5081359;28;20741;-18
2022/04/11 01:38:09;;;;;;;2.60;1.90;;;;;;;;;;5081845;28;20712;-18
2022/04/11 01:40:37;;;;;;;3.50;1.92;;;;;;;;;;5084130;28;20227;-18
2022/04/11 01:43:05;;;;;;;4.00;2.20;;;;;;;;;;5084932;28;20236;-18
2022/04/11 01:45:32;;;;;;;3.72;2.15;;;;;;;;;;5079975;28;20233;-18
2022/04/11 01:47:59;;;;;;;2.80;1.88;;;;;;;;;;5083537;28;20213;-18
2022/04/11 01:50:27;;;;;;;2.90;1.77;;;;;;;;;;5083068;28;20279;-18
2022/04/11 01:52:54;;;;;;;3.03;1.90;;;;;;;;;;5083358;28;20233;-18
2022/04/11 01:55:21;;;;;;;3.47;2.10;;;;;;;;;;5085557;28;20225;-18
2022/04/11 01:57:50;;;;;;;4.55;2.15;;;;;;;;;;5081970;28;21063;-18
2022/04/11 02:00:17;;;;;;;3.17;1.88;;;;;;;;;;5080113;28;20225;-18
2022/04/11 02:02:45;;;;;;;2.95;1.90;;;;;;;;;;5081254;28;20234;-18
2022/04/11 02:05:12;;;;;;;2.97;1.70;;;;;;;;;;5077600;28;20689;-18
2022/04/11 02:07:39;;;;;;;2.63;1.77;;;;;;;;;;5085053;28;20231;-18
2022/04/11 02:10:07;;;;;;;2.83;1.80;;;;;;;;;;5081702;28;20217;-18
2022/04/11 02:12:35;;;;;;;3.28;1.60;;;;;;;;;;5081457;28;20223;-18
2022/04/11 02:15:04;;;;;;;2.67;1.90;;;;;;;;;;5080820;28;20230;-18
2022/04/11 02:17:31;;;;;;;3.05;1.75;;;;;;;;;;5079627;28;20727;-18
2022/04/11 02:19:59;;;;;;;3.25;1.80;;;;;;;;;;5082611;28;20225;-18
2022/04/11 02:22:26;;;;;;;2.60;1.70;;;;;;;;;;5114977;22;20240;-17
2022/04/11 02:24:53;;;;;;;3.75;1.80;;;;;;;;;;5104284;28;20563;-17
2022/04/11 02:27:21;;;;;;;4.53;1.67;;;;;;;;;;5107391;28;20239;-17
2022/04/11 02:29:48;;;;;;;2.33;1.50;;;;;;;;;;5101018;28;20761;-17
2022/04/11 02:32:17;;;;;;;2.15;1.52;;;;;;;;;;5104820;28;20221;-17
2022/04/11 02:34:44;;;;;;;2.90;1.70;;;;;;;;;;5102667;28;20232;-17
2022/04/11 02:37:11;;;;;;;3.28;1.77;;;;;;;;;;5101766;28;20243;-17
2022/04/11 02:39:38;;;;;;;6.03;1.83;;;;;;;;;;5102646;28;20224;-17
2022/04/11 02:42:06;;;;;;;2.10;1.50;;;;;;;;;;5102133;28;20220;-17
2022/04/11 02:44:33;;;;;;;2.80;1.65;;;;;;;;;;5099942;28;20229;-17
2022/04/11 02:47:01;;;;;;;2.88;1.80;;;;;;;;;;5104208;28;20225;-17
2022/04/11 02:49:29;;;;;;;4.00;1.55;;;;;;;;;;5103802;28;21067;-17
2022/04/11 02:51:57;;;;;;;2.95;1.73;;;;;;;;;;5102829;28;20233;-17
2022/04/11 02:54:24;;;;;;;2.63;1.60;;;;;;;;;;5101881;28;20236;-17
2022/04/11 02:56:51;;;;;;;2.03;1.60;;;;;;;;;;5106338;28;20247;-17
2022/04/11 02:59:19;;;;;;;1.92;1.60;;;;;;;;;;5106376;28;20259;-17
2022/04/11 03:01:46;;;;;;;3.63;1.60;;;;;;;;;;5104593;28;20233;-17
2022/04/11 03:04:13;;;;;;;4.22;1.77;;;;;;;;;;5099963;28;21033;-17
2022/04/11 03:06:42;;;;;;;1.85;1.38;;;;;;;;;;5096587;28;20232;-17
2022/04/11 03:09:09;;;;;;;2.22;1.60;;;;;;;;;;5103460;28;20647;-17
2022/04/11 03:11:37;;;;;;;2.40;1.23;;;;;;;;;;5104075;28;20220;-17
2022/04/11 03:14:04;;;;;;;2.65;1.85;;;;;;;;;;5103607;28;20297;-17
2022/04/11 03:16:31;;;;;;;1.80;1.40;;;;;;;;;;5107108;28;20232;-17
2022/04/11 03:18:59;;;;;;;2.63;1.30;;;;;;;;;;5101843;28;20347;-17
2022/04/11 03:21:26;;;;;;;2.67;1.60;;;;;;;;;;5093930;28;20250;-17
2022/04/11 03:23:55;;;;;;;2.00;1.50;;;;;;;;;;5080052;28;20233;-17
2022/04/11 03:26:22;;;;;;;2.00;1.25;;;;;;;;;;5080566;28;20245;-17
2022/04/11 03:28:49;;;;;;;1.90;1.45;;;;;;;;;;5092082;28;20272;-17
2022/04/11 03:31:17;;;;;;;1.80;1.20;;;;;;;;;;5088151;28;20236;-17
2022/04/11 03:33:45;;;;;;;1.80;1.38;;;;;;;;;;5087971;28;20270;-17
2022/04/11 03:36:12;;;;;;;1.67;1.30;;;;;;;;;;5079808;28;21064;-17
2022/04/11 03:38:39;;;;;;;2.28;1.33;;;;;;;;;;5083369;28;20231;-17
2022/04/11 03:41:08;;;;;;;1.73;1.17;;;;;;;;;;5091507;28;20232;-17
2022/04/11 03:43:35;;;;;;;2.30;1.63;;;;;;;;;;5089850;28;20691;-17
2022/04/11 03:46:03;;;;;;;1.40;1.30;;;;;;;;;;5086393;28;20231;-17
2022/04/11 03:48:30;;;;;;;2.20;1.42;;;;;;;;;;5085226;28;20690;-17
2022/04/11 03:50:58;;;;;;;2.58;1.40;;;;;;;;;;5085749;28;20233;-17
2022/04/11 03:53:30;;;;;;;2.60;1.40;;;;;;;;;;5091029;28;20224;-17
2022/04/11 03:55:57;;;;;;;1.58;1.40;;;;;;;;;;5091577;28;20684;-17
2022/04/11 03:58:26;;;;;;;1.75;1.30;;;;;;;;;;5091639;28;20237;-17
2022/04/11 04:00:59;;;;;;;2.10;1.23;;;;;;;;;;5091480;28;20248;-17
2022/04/11 04:03:28;;;;;;;3.17;1.08;;;;;;;;;;5091136;28;21119;-17
2022/04/11 04:05:55;;;;;;;2.03;1.17;;;;;;;;;;5090767;28;20747;-17
2022/04/11 04:08:22;;;;;;;1.80;1.20;;;;;;;;;;5081410;28;20231;-17
2022/04/11 04:10:50;;;;;;;3.05;1.40;;;;;;;;;;5080229;28;20233;-17
2022/04/11 04:13:17;;;;;;;2.80;1.45;;;;;;;;;;5091470;28;20228;-17
2022/04/11 04:15:46;;;;;;;3.70;1.40;;;;;;;;;;5084744;28;20221;-17
2022/04/11 04:18:13;;;;;;;3.03;1.60;;;;;;;;;;5091668;28;20711;-17
2022/04/11 04:20:40;;;;;;;2.47;1.42;;;;;;;;;;5090625;28;20247;-17
2022/04/11 04:23:08;;;;;;;1.73;1.25;;;;;;;;;;5094674;28;20319;-17
2022/04/11 04:25:35;;;;;;;2.38;1.52;;;;;;;;;;5095003;28;20233;-17
2022/04/11 04:28:02;;;;;;;1.92;1.10;;;;;;;;;;5090471;28;21017;-17
2022/04/11 04:30:30;;;;;;;1.52;1.10;;;;;;;;;;5094550;28;20228;-17
2022/04/11 04:32:58;;;;;;;3.30;1.38;;;;;;;;;;5094099;28;20217;-17
2022/04/11 04:35:26;;;;;;;2.47;1.52;;;;;;;;;;5094593;28;20221;-17
2022/04/11 04:37:53;;;;;;;1.75;1.02;;;;;;;;;;5094388;28;20253;-17
2022/04/11 04:40:21;;;;;;;1.70;1.25;;;;;;;;;;5086264;28;20213;-17
2022/04/11 04:42:48;;;;;;;1.60;1.10;;;;;;;;;;5094535;28;20239;-17
2022/04/11 04:45:15;;;;;;;2.53;1.27;;;;;;;;;;5094255;28;20341;-17
2022/04/11 04:47:42;;;;;;;5.00;1.10;;;;;;;;;;5094258;28;20251;-17
2022/04/11 04:50:11;;;;;;;2.00;1.25;;;;;;;;;;5090798;28;20239;-17
2022/04/11 04:52:39;;;;;;;1.33;1.20;;;;;;;;;;5082716;28;20233;-17
2022/04/11 04:55:07;;;;;;;1.45;1.00;;;;;;;;;;5082144;28;20992;-17
2022/04/11 04:57:34;;;;;;;2.22;1.10;;;;;;;;;;5092182;28;20275;-17
2022/04/11 05:00:02;;;;;;;1.23;0.98;;;;;;;;;;5092966;28;20233;-17
2022/04/11 05:02:34;;;;;;;2.05;1.23;;;;;;;;;;5091579;28;20749;-17
2022/04/11 05:05:03;;;;;;;1.40;1.08;;;;;;;;;;5093893;28;20229;-17
2022/04/11 05:07:32;;;;;;;1.52;1.20;;;;;;;;;;5090772;28;20225;-17
2022/04/11 05:10:06;;;;;;;4.95;1.20;;;;;;;;;;5093251;28;20236;-17
2022/04/11 05:12:38;;;;;;;1.55;1.00;;;;;;;;;;5093954;28;20232;-17
2022/04/11 05:15:06;;;;;;;3.05;1.50;;;;;;;;;;5088592;28;20259;-17
2022/04/11 05:17:33;;;;;;;1.83;1.10;;;;;;;;;;5093209;28;20243;-17
2022/04/11 05:20:00;;;;;;;1.02;0.80;;;;;;;;;;5087277;28;20229;-17
2022/04/11 05:22:28;;;;;;;3.38;1.20;;;;;;;;;;5085466;28;20256;-17
2022/04/11 05:24:56;;;;;;;2.55;1.00;;;;;;;;;;5091489;28;20228;-17
2022/04/11 05:27:24;;;;;;;1.73;1.10;;;;;;;;;;5085448;28;20687;-17
2022/04/11 05:29:51;;;;;;;1.60;1.23;;;;;;;;;;5093067;28;20617;-17
2022/04/11 05:32:18;;;;;;;1.83;1.50;;;;;;;;;;5092813;28;20233;-17
2022/04/11 05:34:46;;;;;;;2.13;1.33;;;;;;;;;;5087761;28;20708;-17
2022/04/11 05:37:13;;;;;;;2.10;1.40;;;;;;;;;;5090246;28;20239;-17
2022/04/11 05:39:40;;;;;;;2.13;1.10;;;;;;;;;;5087290;28;20343;-17
2022/04/11 05:42:09;;;;;;;1.95;1.30;;;;;;;;;;5090854;28;20221;-17
2022/04/11 05:44:36;;;;;;;2.65;1.45;;;;;;;;;;5093077;28;20229;-17
2022/04/11 05:47:04;;;;;;;3.40;1.17;;;;;;;;;;5093045;28;21265;-17
2022/04/11 05:49:32;;;;;;;2.20;1.30;;;;;;;;;;5082776;28;20220;-17
2022/04/11 05:51:59;;;;;;;4.38;1.00;;;;;;;;;;5081464;28;20233;-17
2022/04/11 05:54:26;;;;;;;3.15;1.20;;;;;;;;;;5082613;28;22243;-17
2022/04/11 05:56:55;;;;;;;2.40;1.48;;;;;;;;;;5093207;28;20248;-17
2022/04/11 05:59:24;;;;;;;2.42;1.10;;;;;;;;;;5083494;28;20302;-17
2022/04/11 06:01:51;;;;;;;2.17;1.38;;;;;;;;;;5090681;28;20221;-17
2022/04/11 06:04:18;;;;;;;1.83;0.98;;;;;;;;;;5093222;28;20746;-17
2022/04/11 06:06:46;;;;;;;1.70;1.13;;;;;;;;;;5084309;28;20241;-17
2022/04/11 06:09:13;;;;;;;4.20;0.98;;;;;;;;;;5093570;28;20259;-17
2022/04/11 06:11:40;;;;;;;2.60;1.35;;;;;;;;;;5088351;28;20239;-17
2022/04/11 06:14:08;;;;;;;3.92;1.25;;;;;;;;;;5081234;28;20228;-17
2022/04/11 06:16:36;;;;;;;5.95;1.30;;;;;;;;;;5088057;28;20235;-17
2022/04/11 06:19:04;;;;;;;3.28;1.20;;;;;;;;;;5092836;28;20247;-17
2022/04/11 06:21:31;;;;;;;4.90;1.20;;;;;;;;;;5083405;28;20244;-17
2022/04/11 06:23:58;;;;;;;1.38;1.27;;;;;;;;;;5090367;28;20350;-17
2022/04/11 06:26:26;;;;;;;7.13;1.80;;;;;;;;;;5089916;28;20232;-17
2022/04/11 06:28:53;;;;;;;4.90;1.60;;;;;;;;;;5091997;28;20290;-17
2022/04/11 06:31:20;;;;;;;3.10;1.50;;;;;;;;;;5088449;28;20339;-17
2022/04/11 06:33:49;;;;;;;5.80;1.45;;;;;;;;;;5092759;28;20217;-17
2022/04/11 06:36:18;;;;;;;2.80;1.80;;;;;;;;;;5092011;28;20236;-17
2022/04/11 06:38:45;;;;;;;6.13;1.73;;;;;;;;;;5091012;28;20243;-17
2022/04/11 06:41:13;;;;;;;2.00;1.02;;;;;;;;;;5084355;28;20959;-17
2022/04/11 06:43:40;;;;;;;2.08;1.25;;;;;;;;;;5084754;28;20750;-17
2022/04/11 06:46:07;;;;;;;2.53;1.63;;;;;;;;;;5083519;28;20232;-17
2022/04/11 06:48:35;;;;;;;2.60;1.50;;;;;;;;;;5090573;28;20228;-18
2022/04/11 06:51:04;;;;;;;1.60;1.15;;;;;;;;;;5091391;28;20235;-17
2022/04/11 06:53:31;;;;;;;3.03;1.48;;;;;;;;;;5087390;28;20233;-18
2022/04/11 06:55:58;;;;;;;3.90;1.27;;;;;;;;;;5088621;28;20705;-17
2022/04/11 06:58:27;;;;;;;3.53;1.67;;;;;;;;;;5087589;28;20264;-18
2022/04/11 07:00:55;;;;;;;4.78;1.80;;;;;;;;;;5083944;28;20239;-17
2022/04/11 07:03:22;;;;;;;3.80;1.52;;;;;;;;;;5086609;28;21049;-17
2022/04/11 07:05:50;;;;;;;3.22;1.30;;;;;;;;;;5084787;28;21055;-17
2022/04/11 07:08:18;;;;;;;2.90;1.60;;;;;;;;;;5091080;28;20237;-17
2022/04/11 07:10:47;;;;;;;4.30;1.50;;;;;;;;;;5089942;28;20233;-18
2022/04/11 07:13:14;;;;;;;2.83;1.38;;;;;;;;;;5086852;28;20238;-17
2022/04/11 07:15:42;;;;;;;2.92;1.20;;;;;;;;;;5085376;28;20259;-17
2022/04/11 07:18:09;;;;;;;2.15;1.40;;;;;;;;;;5091474;28;20695;-17
2022/04/11 07:20:38;;;;;;;4.00;1.80;;;;;;;;;;5085329;28;20240;-18
2022/04/11 07:23:06;;;;;;;2.30;1.48;;;;;;;;;;5087089;28;20236;-17
2022/04/11 07:25:34;;;;;;;5.43;1.63;;;;;;;;;;5088328;28;20229;-18
2022/04/11 07:28:02;;;;;;;4.70;1.63;;;;;;;;;;5083654;28;21000;-17
2022/04/11 07:30:29;;;;;;;2.42;1.63;;;;;;;;;;5089358;28;20258;-18
2022/04/11 07:32:56;;;;;;;2.42;1.60;;;;;;;;;;5077908;28;20658;-17
2022/04/11 07:35:24;;;;;;;5.50;1.88;;;;;;;;;;5090644;28;21132;-17
2022/04/11 07:37:51;;;;;;;5.30;1.65;;;;;;;;;;5091987;28;20217;-17
2022/04/11 07:40:18;;;;;;;2.95;1.75;;;;;;;;;;5091570;28;20235;-17
2022/04/11 07:42:47;;;;;;;6.15;1.65;;;;;;;;;;5082011;28;20233;-17
2022/04/11 07:45:14;;;;;;;4.00;2.00;;;;;;;;;;5084163;28;20224;-17
2022/04/11 07:47:42;;;;;;;4.65;1.80;;;;;;;;;;5087411;28;20232;-17
2022/04/11 07:50:09;;;;;;;2.25;1.60;;;;;;;;;;5081820;28;20391;-17
2022/04/11 07:52:37;;;;;;;4.80;1.70;;;;;;;;;;5079687;28;20233;-17
2022/04/11 07:55:05;;;;;;;5.10;2.10;;;;;;;;;;5082393;28;20233;-17
2022/04/11 07:57:32;;;;;;;2.33;1.83;;;;;;;;;;5091570;28;20236;-17
2022/04/11 08:00:20;;;;;;;2.63;1.63;;;;;;;;;;5088134;28;20236;-17
2022/04/11 08:02:50;;;;;;;3.45;1.60;;;;;;;;;;5091498;28;20225;-17
2022/04/11 08:05:19;;;;;;;2.45;1.77;;;;;;;;;;5090846;28;20237;-17
2022/04/11 08:07:46;;;;;;;3.58;1.67;;;;;;;;;;5086591;28;20229;-17
2022/04/11 08:10:14;;;;;;;3.30;1.90;;;;;;;;;;5089449;28;20680;-17
2022/04/11 08:12:42;;;;;;;3.40;1.70;;;;;;;;;;5089977;28;20224;-17
2022/04/11 08:15:10;;;;;;;3.55;1.95;;;;;;;;;;5087055;28;20221;-17
2022/04/11 08:17:38;;;;;;;7.68;2.00;;;;;;;;;;5090218;28;20233;-18
2022/04/11 08:20:06;;;;;;;2.55;1.70;;;;;;;;;;5090696;28;20237;-17
2022/04/11 08:22:33;;;;;;;3.40;1.83;;;;;;;;;;5079246;28;20640;-17
2022/04/11 08:25:01;;;;;;;1.77;1.35;;;;;;;;;;5084195;28;20225;-17
2022/04/11 08:27:28;;;;;;;2.38;1.70;;;;;;;;;;5089330;28;20238;-17
2022/04/11 08:29:55;;;;;;;9.02;2.22;;;;;;;;;;5085778;28;20248;-17
2022/04/11 08:32:23;;;;;;;2.10;1.65;;;;;;;;;;5088772;28;20224;-17
2022/04/11 08:34:52;;;;;;;3.15;1.88;;;;;;;;;;5089537;28;20733;-17
2022/04/11 08:37:19;;;;;;;2.20;1.77;;;;;;;;;;5090669;28;20221;-17
2022/04/11 08:39:47;;;;;;;2.75;1.48;;;;;;;;;;5088148;28;20251;-17
2022/04/11 08:42:15;;;;;;;2.45;1.60;;;;;;;;;;5090222;28;20244;-17
2022/04/11 08:44:43;;;;;;;4.50;1.67;;;;;;;;;;5079969;28;20791;-17
2022/04/11 08:47:10;;;;;;;2.15;1.40;;;;;;;;;;5089311;28;20229;-17
2022/04/11 08:49:38;;;;;;;2.90;1.67;;;;;;;;;;5086032;28;20236;-17
2022/04/11 08:52:07;;;;;;;2.80;1.70;;;;;;;;;;5085559;28;20228;-16
2022/04/11 08:54:34;;;;;;;2.92;2.00;;;;;;;;;;5089437;28;20258;-16
2022/04/11 08:57:02;;;;;;;4.15;1.85;;;;;;;;;;5083996;28;20722;-16
2022/04/11 08:59:32;;;;;;;2.30;1.50;;;;;;;;;;5088869;28;20248;-16
2022/04/11 09:01:59;;;;;;;2.47;1.73;;;;;;;;;;5089187;28;20228;-16
2022/04/11 09:04:26;;;;;;;3.42;1.80;;;;;;;;;;5092257;28;20231;-16
2022/04/11 09:06:59;;;;;;;4.75;1.80;;;;;;;;;;5094038;28;20622;-16
2022/04/11 09:09:38;;;;;;;3.10;2.05;;;;;;;;;;5094206;28;20236;-16
2022/04/11 09:12:05;;;;;;;11.35;2.10;;;;;;;;;;5082773;28;20256;-17
2022/04/11 09:14:35;;;;;;;8.23;2.00;;;;;;;;;;5088486;28;20225;-16
2022/04/11 09:17:02;;;;;;;9.13;2.15;;;;;;;;;;5093011;28;20330;-16
2022/04/11 09:19:31;;;;;;;7.95;2.00;;;;;;;;;;5091966;28;20635;-16
2022/04/11 09:22:29;;;;;;;5.30;2.05;;;;;;;;;;5084347;28;20234;-16
2022/04/11 09:25:06;;;;;;;3.60;2.00;;;;;;;;;;5090546;28;20229;-16
2022/04/11 09:27:33;;;;;;;4.38;2.03;;;;;;;;;;5086783;28;20231;-16
2022/04/11 09:30:00;;;;;;;10.73;2.10;;;;;;;;;;5084380;28;20595;-16
2022/04/11 09:32:28;;;;;;;5.45;2.03;;;;;;;;;;5092127;28;20233;-16
2022/04/11 09:34:55;;;;;;;3.70;1.75;;;;;;;;;;5088778;28;20984;-16
2022/04/11 09:37:22;;;;;;;4.85;1.85;;;;;;;;;;5089407;28;20689;-16
2022/04/11 09:39:56;;;;;;;6.63;1.98;;;;;;;;;;5093178;28;20244;-17
2022/04/11 09:42:32;;;;;;;3.78;2.10;;;;;;;;;;5090424;28;20229;-16
2022/04/11 09:45:00;;;;;;;6.07;2.38;;;;;;;;;;5092581;28;20232;-16
2022/04/11 09:47:58;;;;;;;4.72;1.92;;;;;;;;;;5086461;28;20220;-16
2022/04/11 09:50:28;;;;;;;5.35;1.83;;;;;;;;;;5093429;28;20227;-16
2022/04/11 09:52:57;;;;;;;4.70;1.90;;;;;;;;;;5093474;28;21072;-16
2022/04/11 09:55:24;;;;;;;3.05;2.15;;;;;;;;;;5090374;28;20225;-16
2022/04/11 09:57:53;;;;;;;7.85;1.92;;;;;;;;;;5085597;28;20237;-18
2022/04/11 10:00:20;;;;;;;4.45;1.75;;;;;;;;;;5088480;28;20241;-18
2022/04/11 10:02:48;;;;;;;5.80;2.47;;;;;;;;;;5088066;28;20316;-18
2022/04/11 10:05:17;;;;;;;4.63;2.10;;;;;;;;;;5092145;28;20240;-18
2022/04/11 10:07:44;;;;;;;4.90;2.00;;;;;;;;;;5089967;28;20228;-18
2022/04/11 10:10:15;;;;;;;7.28;2.28;;;;;;;;;;5091379;28;20237;-18
2022/04/11 10:12:42;;;;;;;5.30;2.00;;;;;;;;;;5088680;28;20227;-18
2022/04/11 10:15:12;;;;;;;7.03;2.17;;;;;;;;;;5085730;28;20282;-18
2022/04/11 10:17:39;;;;;;;6.38;2.15;;;;;;;;;;5092270;28;20704;-18
2022/04/11 10:20:07;;;;;;;4.07;1.88;;;;;;;;;;5088815;28;20229;-18
2022/04/11 10:22:38;;;;;;;4.50;1.83;;;;;;;;;;5089531;28;20251;-16
2022/04/11 10:25:06;;;;;;;4.50;1.75;;;;;;;;;;5092795;28;20221;-18
2022/04/11 10:27:33;;;;;;;3.97;1.85;;;;;;;;;;5081803;28;20232;-17
2022/04/11 10:30:03;;;;;;;2.83;1.92;;;;;;;;;;5087449;28;20328;-18
2022/04/11 10:32:34;;;;;;;4.88;2.00;;;;;;;;;;5091647;28;20308;-17
2022/04/11 10:35:01;;;;;;;4.20;1.70;;;;;;;;;;5092768;28;21406;-18
2022/04/11 10:37:29;;;;;;;5.88;1.92;;;;;;;;;;5082076;28;20243;-18
2022/04/11 10:40:12;;;;;;;5.25;2.33;;;;;;;;;;5082416;28;20726;-18
2022/04/11 10:42:39;;;;;;;4.45;2.45;;;;;;;;;;5090991;28;20328;-18
2022/04/11 10:45:07;;;;;;;2.95;1.77;;;;;;;;;;5082581;28;20224;-17
2022/04/11 10:47:36;;;;;;;4.70;2.10;;;;;;;;;;5096685;28;20232;-18
2022/04/11 10:50:36;;;;;;;4.35;1.83;;;;;;;;;;5093086;28;20986;-18
2022/04/11 10:53:10;;;;;;;3.33;1.50;;;;;;;;;;5090528;28;20229;-18
2022/04/11 10:55:53;;;;;;;3.95;1.92;;;;;;;;;;5084642;28;20225;-18
2022/04/11 10:58:20;;;;;;;4.95;2.15;;;;;;;;;;5092460;28;20225;-18
2022/04/11 11:00:48;;;;;;;7.85;1.83;;;;;;;;;;5092345;28;20244;-18
2022/04/11 11:03:17;;;;;;;5.03;1.98;;;;;;;;;;5086921;28;20316;-18
2022/04/11 11:06:17;;;;;;;4.35;1.95;;;;;;;;;;5082326;28;20810;-18
2022/04/11 11:08:44;;;;;;;3.08;1.50;;;;;;;;;;5085544;28;20320;-18
2022/04/11 11:11:23;;;;;;;5.85;2.10;;;;;;;;;;5087704;28;21046;-18
2022/04/11 11:13:50;;;;;;;4.82;1.83;;;;;;;;;;5087687;28;20233;-18
2022/04/11 11:16:37;;;;;;;3.25;2.15;;;;;;;;;;5085013;28;20699;-18
2022/04/11 11:19:21;;;;;;;3.08;1.95;;;;;;;;;;5089356;28;20244;-18
2022/04/11 11:22:01;;;;;;;4.25;2.03;;;;;;;;;;5090801;28;20247;-19
2022/04/11 11:24:29;;;;;;;3.90;2.05;;;;;;;;;;5082247;28;20233;-18
2022/04/11 11:26:57;;;;;;;3.47;1.58;;;;;;;;;;5091921;28;20237;-18
2022/04/11 11:29:25;;;;;;;4.20;2.00;;;;;;;;;;5092068;28;20298;-18
2022/04/11 11:31:53;;;;;;;3.17;2.10;;;;;;;;;;5091710;28;20225;-18
2022/04/11 11:34:22;;;;;;;3.97;1.90;;;;;;;;;;5091945;28;20228;-18
2022/04/11 11:36:51;;;;;;;3.08;1.70;;;;;;;;;;5090673;28;20232;-18
2022/04/11 11:39:19;;;;;;;5.30;2.10;;;;;;;;;;5091866;28;20615;-18
2022/04/11 11:41:47;;;;;;;4.78;1.90;;;;;;;;;;5091702;28;20730;-18
2022/04/11 11:44:14;;;;;;;3.67;2.05;;;;;;;;;;5085300;28;20220;-18
2022/04/11 11:46:46;;;;;;;5.10;1.85;;;;;;;;;;5091930;28;20229;-19
2022/04/11 11:49:13;;;;;;;4.40;1.67;;;;;;;;;;5089933;28;20726;-18
2022/04/11 11:51:42;;;;;;;4.82;1.70;;;;;;;;;;5088242;28;20224;-18
2022/04/11 11:54:09;;;;;;;3.67;1.90;;;;;;;;;;5092357;28;20240;-18
2022/04/11 11:56:40;;;;;;;4.18;2.17;;;;;;;;;;5083947;28;20235;-19
2022/04/11 11:59:07;;;;;;;2.50;1.70;;;;;;;;;;5092842;28;21122;-18
2022/04/11 12:01:34;;;;;;;5.55;1.73;;;;;;;;;;5090522;28;20240;-18
2022/04/11 12:04:19;;;;;;;6.53;2.17;;;;;;;;;;5091772;28;20319;-19
2022/04/11 12:06:51;;;;;;;4.82;1.92;;;;;;;;;;5088113;28;20228;-18
2022/04/11 12:09:19;;;;;;;4.55;1.98;;;;;;;;;;5090297;28;20234;-18
2022/04/11 12:11:46;;;;;;;4.28;1.70;;;;;;;;;;5091397;28;20231;-18
2022/04/11 12:14:13;;;;;;;3.55;1.73;;;;;;;;;;5085525;28;20288;-18
2022/04/11 12:16:55;;;;;;;3.70;1.92;;;;;;;;;;5091212;28;20228;-18
2022/04/11 12:19:32;;;;;;;3.28;1.88;;;;;;;;;;5088258;28;20229;-18
2022/04/11 12:22:10;;;;;;;3.03;1.70;;;;;;;;;;5090808;28;20738;-19
2022/04/11 12:24:37;;;;;;;3.35;1.65;;;;;;;;;;5091202;28;20254;-18
2022/04/11 12:27:06;;;;;;;2.88;1.50;;;;;;;;;;5090482;28;20843;-18
2022/04/11 12:29:38;;;;;;;2.25;1.45;;;;;;;;;;5091332;28;20216;-18
2022/04/11 12:32:10;;;;;;;5.07;2.35;;;;;;;;;;5090541;28;20703;-19
2022/04/11 12:34:38;;;;;;;3.00;1.70;;;;;;;;;;5090858;28;20228;-19
2022/04/11 12:37:07;;;;;;;3.78;2.17;;;;;;;;;;5093225;28;20224;-18
2022/04/11 12:42:28;;;;;;;2.90;1.73;;;;;;;;;;5136001;27;20629;-17
2022/04/11 12:45:01;;;;;;;3.20;1.58;;;;;;;;;;5139196;27;20216;-17
2022/04/11 12:47:28;;;;;;;3.20;2.00;;;;;;;;;;5139697;27;20239;-16
2022/04/11 12:49:55;;;;;;;3.13;1.50;;;;;;;;;;5139707;27;20701;-17
2022/04/11 12:52:23;;;;;;;2.70;1.83;;;;;;;;;;5136542;27;20719;-17
2022/04/11 12:54:51;;;;;;;2.40;1.65;;;;;;;;;;5138230;27;21064;-17
2022/04/11 12:57:22;;;;;;;2.90;1.58;;;;;;;;;;5141479;27;20215;-15
2022/04/11 12:59:51;;;;;;;3.47;1.65;;;;;;;;;;5140439;27;20223;-15
2022/04/11 13:02:18;;;;;;;4.28;1.90;;;;;;;;;;5137625;27;20242;-14
2022/04/11 13:04:49;;;;;;;3.67;1.80;;;;;;;;;;5138674;27;20308;-14
2022/04/11 13:07:16;;;;;;;3.55;1.70;;;;;;;;;;5142052;27;20604;-15
2022/04/11 13:09:44;;;;;;;2.95;1.85;;;;;;;;;;5137349;27;20258;-15
2022/04/11 13:12:12;;;;;;;2.78;1.67;;;;;;;;;;5137420;27;20460;-15
2022/04/11 13:14:39;;;;;;;4.03;1.88;;;;;;;;;;5138768;27;20234;-14
2022/04/11 13:19:53;;;;;;;3.03;1.80;;;;;;;;;;5135859;27;20236;-15
2022/04/11 13:22:20;;;;;;;3.83;1.85;;;;;;;;;;5126797;27;20244;-15
2022/04/11 13:24:50;;;;;;;3.03;2.00;;;;;;;;;;5119886;27;20232;-15
2022/04/11 13:27:17;;;;;;;4.68;2.42;;;;;;;;;;5116220;27;20330;-15
2022/04/11 13:29:44;;;;;;;3.47;1.58;;;;;;;;;;5119768;27;20232;-14
2022/04/11 13:32:33;;;;;;;5.00;1.83;;;;;;;;;;5117416;27;20228;-15
2022/04/11 13:35:00;;;;;;;3.17;1.75;;;;;;;;;;5117811;27;20273;-15
2022/04/11 13:37:28;;;;;;;3.65;1.88;;;;;;;;;;5117738;27;20228;-15
2022/04/11 13:40:02;;;;;;;3.03;1.50;;;;;;;;;;5117041;27;20226;-15
2022/04/11 13:42:30;;;;;;;4.43;1.88;;;;;;;;;;5115346;27;20614;-15
2022/04/11 13:44:57;;;;;;;2.20;1.48;;;;;;;;;;5116053;27;20238;-15
2022/04/11 13:47:24;;;;;;;3.35;1.63;;;;;;;;;;5116893;27;20318;-15
2022/04/11 13:49:53;;;;;;;2.75;1.55;;;;;;;;;;5118607;27;20501;-15
2022/04/11 13:52:21;;;;;;;2.72;1.80;;;;;;;;;;5111749;27;20256;-14
2022/04/11 13:54:49;;;;;;;3.15;1.50;;;;;;;;;;5105410;28;20217;-15
2022/04/11 13:57:16;;;;;;;4.13;1.88;;;;;;;;;;5102548;28;20224;-14
2022/04/11 14:00:04;;;;;;;3.35;1.52;;;;;;;;;;5105924;28;20228;-14
2022/04/11 14:02:31;;;;;;;1.90;1.52;;;;;;;;;;5103147;28;20244;-14
2022/04/11 14:05:01;;;;;;;3.75;1.70;;;;;;;;;;5101510;27;20217;-15
2022/04/11 14:07:28;;;;;;;2.53;1.63;;;;;;;;;;5103967;28;20220;-15
2022/04/11 14:09:55;;;;;;;2.50;1.70;;;;;;;;;;5104853;28;20236;-15
2022/04/11 14:12:23;;;;;;;2.25;1.45;;;;;;;;;;5102521;28;20976;-15
2022/04/11 14:14:50;;;;;;;3.40;1.70;;;;;;;;;;5101579;28;20571;-14
2022/04/11 14:17:17;;;;;;;2.65;1.63;;;;;;;;;;5101690;28;20216;-15
2022/04/11 14:19:45;;;;;;;3.20;1.40;;;;;;;;;;5101784;28;20216;-16
2022/04/11 14:22:13;;;;;;;1.77;1.38;;;;;;;;;;5100884;28;20792;-14
2022/04/11 14:24:41;;;;;;;4.32;1.48;;;;;;;;;;5097588;28;20233;-15
2022/04/11 14:27:14;;;;;;;2.70;1.52;;;;;;;;;;5098414;28;20270;-14
2022/04/11 14:29:43;;;;;;;3.28;1.77;;;;;;;;;;5097915;28;20324;-15
2022/04/11 14:32:11;;;;;;;2.60;1.60;;;;;;;;;;5098434;28;20319;-15
2022/04/11 14:34:38;;;;;;;2.55;1.50;;;;;;;;;;5101929;28;20228;-15
2022/04/11 14:37:06;;;;;;;1.98;1.35;;;;;;;;;;5104503;28;20231;-15
2022/04/11 14:39:34;;;;;;;3.05;1.75;;;;;;;;;;5102640;28;20315;-15
2022/04/11 14:42:02;;;;;;;1.60;1.30;;;;;;;;;;5103276;28;20240;-14
2022/04/11 14:44:30;;;;;;;2.17;1.48;;;;;;;;;;5099196;28;20234;-14
2022/04/11 14:46:57;;;;;;;4.90;1.80;;;;;;;;;;5104166;28;20224;-15
2022/04/11 14:49:24;;;;;;;3.22;1.75;;;;;;;;;;5103036;28;20351;-14
2022/04/11 14:52:12;;;;;;;3.53;1.52;;;;;;;;;;5097788;28;20228;-14
2022/04/11 14:54:42;;;;;;;3.80;1.52;;;;;;;;;;5099500;28;20674;-14
2022/04/11 14:57:10;;;;;;;2.40;1.33;;;;;;;;;;5101434;28;20229;-15
2022/04/11 14:59:37;;;;;;;2.03;1.40;;;;;;;;;;5104281;28;20936;-15